createdAt,value
2019-03-15T00:02:20.060Z,100.00
2019-03-15T00:04:47.173Z,100.00
2019-03-15T00:07:15.465Z,100.00
2019-03-15T00:09:44.321Z,100.00
2019-03-15T00:12:11.390Z,100.00
2019-03-15T00:14:38.917Z,100.00
2019-03-15T00:17:05.971Z,100.00
2019-03-15T00:19:33.027Z,100.00
2019-03-15T00:22:00.193Z,100.00
2019-03-15T00:24:27.259Z,100.00
2019-03-15T00:26:54.330Z,100.00
2019-03-15T00:29:21.553Z,100.00
2019-03-15T00:31:48.583Z,100.00
2019-03-15T00:34:16.623Z,100.00
2019-03-15T00:36:45.065Z,100.00
2019-03-15T00:39:31.326Z,100.00
2019-03-15T00:41:58.293Z,100.00
2019-03-15T00:44:25.042Z,100.00
2019-03-15T00:46:51.889Z,100.00
2019-03-15T00:49:18.881Z,100.00
2019-03-15T00:51:45.677Z,100.00
2019-03-15T00:54:12.426Z,100.00
2019-03-15T00:56:39.246Z,100.00
2019-03-15T00:59:06.374Z,100.00
2019-03-15T01:01:33.269Z,100.00
2019-03-15T01:04:00.611Z,100.00
2019-03-15T01:06:27.743Z,100.00
2019-03-15T01:08:54.490Z,100.00
2019-03-15T01:11:21.320Z,100.00
2019-03-15T01:13:48.084Z,100.00
2019-03-15T01:16:14.857Z,100.00
2019-03-15T01:18:41.745Z,100.00
2019-03-15T01:21:08.596Z,100.00
2019-03-15T01:23:35.256Z,100.00
2019-03-15T01:26:02.597Z,100.00
2019-03-15T01:28:29.243Z,100.00
2019-03-15T01:30:56.224Z,100.00
2019-03-15T01:33:23.382Z,100.00
2019-03-15T01:35:50.256Z,100.00
2019-03-15T01:38:17.108Z,100.00
2019-03-15T01:40:43.930Z,100.00
2019-03-15T01:43:11.066Z,100.00
2019-03-15T01:45:37.824Z,100.00
2019-03-15T01:48:04.732Z,100.00
2019-03-15T01:50:31.486Z,100.00
2019-03-15T01:52:58.554Z,100.00
2019-03-15T01:55:47.284Z,100.00
2019-03-15T01:58:14.334Z,100.00
2019-03-15T02:00:41.740Z,100.00
2019-03-15T02:03:08.875Z,100.00
2019-03-15T02:05:35.972Z,100.00
2019-03-15T02:08:03.057Z,100.00
2019-03-15T02:10:30.172Z,100.00
2019-03-15T02:12:57.246Z,100.00
2019-03-15T02:15:24.325Z,100.00
2019-03-15T02:17:52.675Z,100.00
2019-03-15T02:21:01.964Z,100.00
2019-03-15T02:23:29.121Z,100.00
2019-03-15T02:25:56.157Z,100.00
2019-03-15T02:28:23.600Z,100.00
2019-03-15T02:30:50.779Z,100.00
2019-03-15T02:33:17.993Z,100.00
2019-03-15T02:35:47.087Z,100.00
2019-03-15T02:38:14.924Z,100.00
2019-03-15T02:40:42.426Z,100.00
2019-03-15T02:43:09.503Z,100.00
2019-03-15T02:45:36.909Z,100.00
2019-03-15T02:48:03.988Z,100.00
2019-03-15T02:50:31.108Z,100.00
2019-03-15T02:52:58.545Z,100.00
2019-03-15T02:55:25.626Z,100.00
2019-03-15T02:57:52.730Z,100.00
2019-03-15T03:00:19.944Z,100.00
2019-03-15T03:02:47.020Z,100.00
2019-03-15T03:05:34.335Z,100.00
2019-03-15T03:08:02.593Z,100.00
2019-03-15T03:10:29.813Z,100.00
2019-03-15T03:12:57.350Z,100.00
2019-03-15T03:15:25.227Z,100.00
2019-03-15T03:17:53.420Z,100.00
2019-03-15T03:20:21.155Z,100.00
2019-03-15T03:22:49.654Z,100.00
2019-03-15T03:25:17.214Z,100.00
2019-03-15T03:27:45.156Z,100.00
2019-03-15T03:30:12.295Z,100.00
2019-03-15T03:32:42.919Z,100.00
2019-03-15T03:35:10.446Z,100.00
2019-03-15T03:37:38.507Z,100.00
2019-03-15T03:40:05.458Z,100.00
2019-03-15T03:42:32.288Z,100.00
2019-03-15T03:44:59.061Z,100.00
2019-03-15T03:47:26.071Z,100.00
2019-03-15T03:49:53.629Z,100.00
2019-03-15T03:52:22.196Z,100.00
2019-03-15T03:54:48.950Z,100.00
2019-03-15T03:57:15.862Z,100.00
2019-03-15T03:59:43.035Z,100.00
2019-03-15T04:02:09.878Z,100.00
2019-03-15T04:04:36.749Z,100.00
2019-03-15T04:07:03.607Z,100.00
2019-03-15T04:09:30.351Z,100.00
2019-03-15T04:11:57.215Z,100.00
2019-03-15T04:14:24.064Z,100.00
2019-03-15T04:16:50.926Z,100.00
2019-03-15T04:19:18.131Z,100.00
2019-03-15T04:21:44.894Z,100.00
2019-03-15T04:24:11.664Z,100.00
2019-03-15T04:26:38.576Z,100.00
2019-03-15T04:29:25.407Z,100.00
2019-03-15T04:31:52.515Z,100.00
2019-03-15T04:34:19.576Z,100.00
2019-03-15T04:36:59.531Z,100.00
2019-03-15T04:39:26.191Z,100.00
2019-03-15T04:41:52.911Z,100.00
2019-03-15T04:44:19.737Z,100.00
2019-03-15T04:46:46.564Z,100.00
2019-03-15T04:49:13.310Z,100.00
2019-03-15T04:51:40.373Z,100.00
2019-03-15T04:54:07.015Z,100.00
2019-03-15T04:56:33.766Z,100.00
2019-03-15T04:59:00.587Z,100.00
2019-03-15T05:01:27.320Z,100.00
2019-03-15T05:03:54.053Z,100.00
2019-03-15T05:06:20.963Z,100.00
2019-03-15T05:08:48.354Z,100.00
2019-03-15T05:11:15.198Z,100.00
2019-03-15T05:13:42.339Z,100.00
2019-03-15T05:16:09.076Z,100.00
2019-03-15T05:18:56.174Z,100.00
2019-03-15T05:21:23.372Z,100.00
2019-03-15T05:23:50.426Z,100.00
2019-03-15T05:26:17.923Z,100.00
2019-03-15T05:28:45.012Z,100.00
2019-03-15T05:31:12.061Z,100.00
2019-03-15T05:33:39.164Z,100.00
2019-03-15T05:36:06.370Z,100.00
2019-03-15T05:38:34.787Z,100.00
2019-03-15T05:41:22.607Z,100.00
2019-03-15T05:43:53.023Z,100.00
2019-03-15T05:46:18.867Z,100.00
2019-03-15T05:48:45.655Z,100.00
2019-03-15T05:51:12.417Z,100.00
2019-03-15T05:53:39.318Z,100.00
2019-03-15T05:56:06.251Z,100.00
2019-03-15T05:58:33.313Z,100.00
2019-03-15T06:01:19.742Z,100.00
2019-03-15T06:03:48.811Z,100.00
2019-03-15T06:06:15.450Z,100.00
2019-03-15T06:08:44.655Z,100.00
2019-03-15T06:11:11.965Z,100.00
2019-03-15T06:13:40.600Z,100.00
2019-03-15T06:16:08.027Z,100.00
2019-03-15T06:18:35.133Z,100.00
2019-03-15T06:21:02.214Z,100.00
2019-03-15T06:23:29.372Z,100.00
2019-03-15T06:25:56.698Z,100.00
2019-03-15T06:28:24.162Z,100.00
2019-03-15T06:30:51.287Z,100.00
2019-03-15T06:33:18.360Z,100.00
2019-03-15T06:35:45.968Z,100.00
2019-03-15T06:38:13.105Z,100.00
2019-03-15T06:40:52.999Z,100.00
2019-03-15T06:43:20.247Z,100.00
2019-03-15T06:45:47.891Z,100.00
2019-03-15T06:48:15.313Z,100.00
2019-03-15T06:50:42.443Z,100.00
2019-03-15T06:53:09.516Z,100.00
2019-03-15T06:55:36.561Z,100.00
2019-03-15T06:58:03.650Z,100.00
2019-03-15T07:00:30.679Z,100.00
2019-03-15T07:02:57.718Z,100.00
2019-03-15T07:05:24.902Z,100.00
2019-03-15T07:07:52.284Z,100.00
2019-03-15T07:10:19.556Z,100.00
2019-03-15T07:16:03.432Z,100.00
2019-03-15T07:18:30.834Z,100.00
2019-03-15T07:20:57.926Z,100.00
2019-03-15T07:23:25.049Z,98.07
2019-03-15T07:25:52.108Z,95.55
2019-03-15T07:28:19.438Z,95.39
2019-03-15T07:30:46.666Z,93.70
2019-03-15T07:33:13.739Z,91.41
2019-03-15T07:35:41.230Z,89.44
2019-03-15T07:38:08.881Z,90.97
2019-03-15T07:40:36.002Z,90.47
2019-03-15T07:43:15.786Z,88.36
2019-03-15T07:45:42.543Z,87.32
2019-03-15T07:48:21.729Z,87.88
2019-03-15T07:50:38.373Z,87.89
2019-03-15T07:53:05.430Z,86.94
2019-03-15T07:55:32.488Z,85.23
2019-03-15T07:58:00.330Z,86.74
2019-03-15T08:00:27.339Z,86.34
2019-03-15T08:02:54.401Z,84.21
2019-03-15T08:05:21.863Z,84.95
2019-03-15T08:07:48.916Z,84.30
2019-03-15T08:10:15.946Z,84.50
2019-03-15T08:12:43.054Z,86.39
2019-03-15T08:15:10.315Z,85.13
2019-03-15T08:17:37.381Z,84.67
2019-03-15T08:20:04.672Z,85.05
2019-03-15T08:22:31.776Z,86.50
2019-03-15T08:24:58.958Z,85.65
2019-03-15T08:27:26.176Z,87.32
2019-03-15T08:29:53.647Z,86.29
2019-03-15T08:32:20.986Z,86.52
2019-03-15T08:34:48.247Z,85.99
2019-03-15T08:37:15.320Z,86.29
2019-03-15T08:39:42.357Z,84.71
2019-03-15T08:42:09.504Z,86.29
2019-03-15T08:44:36.714Z,84.30
2019-03-15T08:47:04.224Z,83.10
2019-03-15T08:49:31.490Z,83.44
2019-03-15T08:52:03.831Z,82.69
2019-03-15T08:54:28.487Z,82.78
2019-03-15T08:56:55.993Z,83.28
2019-03-15T08:59:23.043Z,83.69
2019-03-15T09:01:50.134Z,84.39
2019-03-15T09:04:17.343Z,83.68
2019-03-15T09:06:44.911Z,83.77
2019-03-15T09:09:11.941Z,84.42
2019-03-15T09:11:39.413Z,84.10
2019-03-15T09:14:06.562Z,83.23
2019-03-15T09:16:34.432Z,81.12
2019-03-15T09:19:01.609Z,81.20
2019-03-15T09:21:29.004Z,83.13
2019-03-15T09:23:56.081Z,83.94
2019-03-15T09:26:23.543Z,82.72
2019-03-15T09:28:50.570Z,81.75
2019-03-15T09:31:17.603Z,81.86
2019-03-15T09:33:45.204Z,79.49
2019-03-15T09:36:12.273Z,78.89
2019-03-15T09:38:39.359Z,82.88
2019-03-15T09:41:06.521Z,79.48
2019-03-15T09:43:33.606Z,80.39
2019-03-15T09:46:13.206Z,78.86
2019-03-15T09:48:43.544Z,78.63
2019-03-15T09:51:09.212Z,78.12
2019-03-15T09:53:36.712Z,77.91
2019-03-15T09:56:03.846Z,76.01
2019-03-15T09:58:31.394Z,75.18
2019-03-15T10:00:58.740Z,75.05
2019-03-15T10:03:26.054Z,74.54
2019-03-15T10:05:53.157Z,74.40
2019-03-15T10:08:23.379Z,75.67
2019-03-15T10:10:49.504Z,72.72
2019-03-15T10:13:18.651Z,74.05
2019-03-15T10:15:46.034Z,72.56
2019-03-15T10:18:13.273Z,70.39
2019-03-15T10:20:40.723Z,70.25
2019-03-15T10:23:07.826Z,68.45
2019-03-15T10:25:45.988Z,65.02
2019-03-15T10:28:03.892Z,67.06
2019-03-15T10:30:31.051Z,70.49
2019-03-15T10:32:58.149Z,68.46
2019-03-15T10:35:25.554Z,68.13
2019-03-15T10:37:52.662Z,69.16
2019-03-15T10:40:20.366Z,69.91
2019-03-15T10:42:47.431Z,70.49
2019-03-15T10:45:14.569Z,70.46
2019-03-15T10:47:42.768Z,70.91
2019-03-15T10:50:11.482Z,70.46
2019-03-15T10:52:38.626Z,70.17
2019-03-15T10:55:05.736Z,70.00
2019-03-15T10:57:33.182Z,69.50
2019-03-15T11:00:00.661Z,70.42
2019-03-15T11:02:28.083Z,69.97
2019-03-15T11:05:14.848Z,70.97
2019-03-15T11:07:41.931Z,70.84
2019-03-15T11:10:09.608Z,69.65
2019-03-15T11:12:37.057Z,69.29
2019-03-15T11:15:04.678Z,69.25
2019-03-15T11:17:31.736Z,70.47
2019-03-15T11:19:58.918Z,67.36
2019-03-15T11:22:25.949Z,65.87
2019-03-15T11:24:52.995Z,66.74
2019-03-15T11:27:20.795Z,68.32
2019-03-15T11:29:47.925Z,68.75
2019-03-15T11:32:14.970Z,67.68
2019-03-15T11:34:42.173Z,70.66
2019-03-15T11:37:09.241Z,67.80
2019-03-15T11:39:43.104Z,66.03
2019-03-15T11:42:10.307Z,63.80
2019-03-15T11:44:37.395Z,62.93
2019-03-15T11:47:04.651Z,62.79
2019-03-15T11:49:32.037Z,63.68
2019-03-15T11:52:00.851Z,63.22
2019-03-15T11:54:27.977Z,64.58
2019-03-15T11:56:55.350Z,63.84
2019-03-15T11:59:22.426Z,64.78
2019-03-15T12:02:10.756Z,65.33
2019-03-15T12:04:38.353Z,64.04
2019-03-15T12:07:06.239Z,64.35
2019-03-15T12:09:34.181Z,65.55
2019-03-15T12:12:01.236Z,64.88
2019-03-15T12:14:40.467Z,66.38
2019-03-15T12:16:57.916Z,67.41
2019-03-15T12:19:25.545Z,67.10
2019-03-15T12:22:05.286Z,66.94
2019-03-15T12:24:21.704Z,67.92
2019-03-15T12:26:48.964Z,70.36
2019-03-15T12:29:35.594Z,70.61
2019-03-15T12:32:02.997Z,71.67
2019-03-15T12:34:30.072Z,68.51
2019-03-15T12:36:57.302Z,68.73
2019-03-15T12:39:25.246Z,66.76
2019-03-15T12:41:52.703Z,68.50
2019-03-15T12:44:20.830Z,68.58
2019-03-15T12:46:48.094Z,69.62
2019-03-15T12:49:15.171Z,69.84
2019-03-15T12:51:42.435Z,71.46
2019-03-15T12:54:09.530Z,72.19
2019-03-15T12:56:36.651Z,74.42
2019-03-15T12:59:23.765Z,74.36
2019-03-15T13:01:50.863Z,73.41
2019-03-15T13:04:18.010Z,71.72
2019-03-15T13:06:45.710Z,71.63
2019-03-15T13:09:32.645Z,71.48
2019-03-15T13:11:59.494Z,73.06
2019-03-15T13:14:26.833Z,74.27
2019-03-15T13:16:53.949Z,74.30
2019-03-15T13:19:20.990Z,75.62
2019-03-15T13:21:48.604Z,75.05
2019-03-15T13:24:16.372Z,75.57
2019-03-15T13:26:44.820Z,75.96
2019-03-15T13:29:12.283Z,77.27
2019-03-15T13:31:59.167Z,79.67
2019-03-15T13:34:27.887Z,80.08
2019-03-15T13:36:56.929Z,82.10
2019-03-15T13:39:25.701Z,84.48
2019-03-15T13:41:54.870Z,84.57
2019-03-15T13:44:22.265Z,87.88
2019-03-15T13:46:52.040Z,89.85
2019-03-15T13:49:19.255Z,90.63
2019-03-15T13:51:47.984Z,91.21
2019-03-15T13:54:16.161Z,93.19
2019-03-15T13:56:44.959Z,91.52
2019-03-15T13:59:14.006Z,94.09
2019-03-15T14:01:43.343Z,95.52
2019-03-15T14:04:11.910Z,98.36
2019-03-15T14:06:40.883Z,100.00
2019-03-15T14:09:08.880Z,100.00
2019-03-15T14:11:36.382Z,100.00
2019-03-15T14:14:04.077Z,100.00
2019-03-15T14:16:31.357Z,100.00
2019-03-15T14:18:58.865Z,100.00
2019-03-15T14:21:26.555Z,100.00
2019-03-15T14:23:54.151Z,100.00
2019-03-15T14:26:21.214Z,100.00
2019-03-15T14:28:48.775Z,100.00
2019-03-15T14:31:15.943Z,100.00
2019-03-15T14:33:42.992Z,100.00
2019-03-15T14:36:10.022Z,100.00
2019-03-15T14:38:37.458Z,100.00
2019-03-15T14:41:07.448Z,100.00
2019-03-15T14:43:33.705Z,100.00
2019-03-15T14:46:01.198Z,100.00
2019-03-15T14:48:28.358Z,100.00
2019-03-15T14:50:55.939Z,100.00
2019-03-15T14:53:42.493Z,100.00
2019-03-15T14:56:09.574Z,100.00
2019-03-15T14:58:36.977Z,100.00
2019-03-15T15:01:04.316Z,100.00
2019-03-15T15:03:31.494Z,100.00
2019-03-15T15:05:58.507Z,100.00
2019-03-15T15:08:26.044Z,100.00
2019-03-15T15:10:53.085Z,100.00
2019-03-15T15:13:20.133Z,100.00
2019-03-15T15:15:47.318Z,100.00
2019-03-15T15:18:14.366Z,100.00
2019-03-15T15:20:41.428Z,100.00
2019-03-15T15:23:08.534Z,100.00
2019-03-15T15:25:35.608Z,100.00
2019-03-15T15:28:04.714Z,100.00
2019-03-15T15:30:31.776Z,100.00
2019-03-15T15:32:58.848Z,100.00
2019-03-15T15:35:25.960Z,100.00
2019-03-15T15:37:53.048Z,100.00
2019-03-15T15:40:20.566Z,100.00
2019-03-15T15:43:07.191Z,100.00
2019-03-15T15:45:34.278Z,100.00
2019-03-15T15:48:01.322Z,100.00
2019-03-15T15:50:28.739Z,100.00
2019-03-15T15:52:55.815Z,100.00
2019-03-15T15:55:22.868Z,100.00
2019-03-15T15:58:02.909Z,100.00
2019-03-15T16:00:29.943Z,100.00
2019-03-15T16:02:57.065Z,100.00
2019-03-15T16:05:25.280Z,100.00
2019-03-15T16:07:52.373Z,100.00
2019-03-15T16:10:19.415Z,100.00
2019-03-15T16:12:47.112Z,100.00
2019-03-15T16:15:14.402Z,100.00
2019-03-15T16:17:45.221Z,100.00
2019-03-15T16:20:11.985Z,100.00
2019-03-15T16:22:39.617Z,100.00
2019-03-15T16:25:07.335Z,100.00
2019-03-15T16:27:34.842Z,100.00
2019-03-15T16:30:03.623Z,100.00
2019-03-15T16:32:32.343Z,100.00
2019-03-15T16:35:20.572Z,100.00
2019-03-15T16:37:49.564Z,100.00
2019-03-15T16:40:17.875Z,100.00
2019-03-15T16:42:45.711Z,100.00
2019-03-15T16:45:15.332Z,100.00
2019-03-15T16:47:43.395Z,100.00
2019-03-15T16:50:11.504Z,100.00
2019-03-15T16:52:38.691Z,100.00
2019-03-15T16:55:06.281Z,100.00
2019-03-15T16:57:33.161Z,100.00
2019-03-15T17:00:13.266Z,100.00
2019-03-15T17:02:40.607Z,100.00
2019-03-15T17:05:27.356Z,100.00
2019-03-15T17:08:14.182Z,100.00
2019-03-15T17:10:41.751Z,100.00
2019-03-15T17:16:02.759Z,100.00
2019-03-15T17:18:30.047Z,100.00
2019-03-15T17:20:57.483Z,100.00
2019-03-15T17:23:24.565Z,100.00
2019-03-15T17:25:51.658Z,100.00
2019-03-15T17:28:18.901Z,100.00
2019-03-15T17:30:46.258Z,100.00
2019-03-15T17:33:13.409Z,100.00
2019-03-15T17:35:41.134Z,100.00
2019-03-15T17:38:08.373Z,100.00
2019-03-15T17:40:35.953Z,100.00
2019-03-15T17:43:03.715Z,100.00
2019-03-15T17:45:31.410Z,100.00
2019-03-15T17:47:58.454Z,97.98
2019-03-15T17:50:26.187Z,95.58
2019-03-15T17:52:53.647Z,89.80
2019-03-15T17:55:20.906Z,88.42
2019-03-15T17:57:48.077Z,83.73
2019-03-15T18:00:37.017Z,81.73
2019-03-15T18:03:53.138Z,81.19
2019-03-15T18:06:20.193Z,79.99
2019-03-15T18:08:47.267Z,79.62
2019-03-15T18:11:14.429Z,79.76
2019-03-15T18:13:41.473Z,80.57
2019-03-15T18:16:08.524Z,78.38
2019-03-15T18:18:35.712Z,75.14
2019-03-15T18:21:03.163Z,73.54
2019-03-15T18:23:30.278Z,70.90
2019-03-15T18:25:57.761Z,70.63
2019-03-15T18:28:24.837Z,72.87
2019-03-15T18:30:51.989Z,72.37
2019-03-15T18:33:19.148Z,72.97
2019-03-15T18:35:46.668Z,72.03
2019-03-15T18:38:13.775Z,70.67
2019-03-15T18:40:40.999Z,71.38
2019-03-15T18:43:08.118Z,72.26
2019-03-15T18:45:35.759Z,71.21
2019-03-15T18:48:02.962Z,70.33
2019-03-15T18:50:30.153Z,70.10
2019-03-15T18:52:57.403Z,70.51
2019-03-15T18:55:24.696Z,69.14
2019-03-15T18:57:51.765Z,67.92
2019-03-15T19:00:18.879Z,68.04
2019-03-15T19:03:00.148Z,67.71
2019-03-15T19:05:27.342Z,66.07
2019-03-15T19:07:54.455Z,64.19
2019-03-15T19:10:22.231Z,61.94
2019-03-15T19:12:49.324Z,62.77
2019-03-15T19:15:16.459Z,61.32
2019-03-15T19:17:43.679Z,61.89
2019-03-15T19:20:11.069Z,60.75
2019-03-15T19:22:38.149Z,62.82
2019-03-15T19:25:05.780Z,61.56
2019-03-15T19:27:33.249Z,62.13
2019-03-15T19:30:00.397Z,63.00
2019-03-15T19:32:27.695Z,63.25
2019-03-15T19:34:54.839Z,63.12
2019-03-15T19:37:22.290Z,64.07
2019-03-15T19:39:49.707Z,64.16
2019-03-15T19:42:17.365Z,64.01
2019-03-15T19:44:44.539Z,65.08
2019-03-15T19:47:12.253Z,66.46
2019-03-15T19:49:40.242Z,65.50
2019-03-15T19:52:07.973Z,67.60
2019-03-15T19:54:36.590Z,67.17
2019-03-15T19:57:03.978Z,67.62
2019-03-15T19:59:31.147Z,68.17
2019-03-15T20:01:58.842Z,67.72
2019-03-15T20:04:26.064Z,68.03
2019-03-15T20:06:53.401Z,66.24
2019-03-15T20:09:22.130Z,64.81
2019-03-15T20:11:49.286Z,61.71
2019-03-15T20:14:16.899Z,61.95
2019-03-15T20:16:45.541Z,61.52
2019-03-15T20:19:12.637Z,62.71
2019-03-15T20:21:39.780Z,62.18
2019-03-15T20:24:07.723Z,62.61
2019-03-15T20:26:35.523Z,63.66
2019-03-15T20:29:03.203Z,64.69
2019-03-15T20:31:30.909Z,64.16
2019-03-15T20:33:58.994Z,62.88
2019-03-15T20:39:35.579Z,62.74
2019-03-15T20:42:22.947Z,63.51
2019-03-15T20:45:10.607Z,63.67
2019-03-15T20:47:58.545Z,64.44
2019-03-15T20:50:26.550Z,63.63
2019-03-15T20:53:07.600Z,64.34
2019-03-15T20:55:24.153Z,63.08
2019-03-15T20:57:51.242Z,63.34
2019-03-15T21:00:18.349Z,63.75
2019-03-15T21:02:47.828Z,63.84
2019-03-15T21:05:14.959Z,64.39
2019-03-15T21:07:43.826Z,64.41
2019-03-15T21:10:10.794Z,64.51
2019-03-15T21:12:37.627Z,64.95
2019-03-15T21:15:06.170Z,65.50
2019-03-15T21:17:53.377Z,65.03
2019-03-15T21:20:22.561Z,63.86
2019-03-15T21:26:03.084Z,62.99
2019-03-15T21:28:30.616Z,62.58
2019-03-15T21:30:57.972Z,61.43
2019-03-15T21:33:25.522Z,61.67
2019-03-15T21:35:52.736Z,60.42
2019-03-15T21:38:19.793Z,60.07
2019-03-15T21:40:46.940Z,60.76
2019-03-15T21:43:14.080Z,61.20
2019-03-15T21:45:41.187Z,60.90
2019-03-15T21:48:08.248Z,61.15
2019-03-15T21:50:35.378Z,61.81
2019-03-15T21:53:02.471Z,62.41
2019-03-15T21:55:29.564Z,61.97
2019-03-15T21:57:56.780Z,61.47
2019-03-15T22:00:24.212Z,61.63
2019-03-15T22:02:51.296Z,62.00
2019-03-15T22:05:18.607Z,61.87
2019-03-15T22:07:45.744Z,62.90
2019-03-15T22:10:12.842Z,62.00
2019-03-15T22:12:39.982Z,62.11
2019-03-15T22:15:07.590Z,62.41
2019-03-15T22:17:36.238Z,61.74
2019-03-15T22:20:04.389Z,62.07
2019-03-15T22:22:31.464Z,62.53
2019-03-15T22:24:58.723Z,61.94
2019-03-15T22:27:26.338Z,62.32
2019-03-15T22:29:54.014Z,61.98
2019-03-15T22:32:22.441Z,62.75
2019-03-15T22:34:49.569Z,61.95
2019-03-15T22:37:17.330Z,62.64
2019-03-15T22:39:44.649Z,63.02
2019-03-15T22:42:11.787Z,63.50
2019-03-15T22:44:38.937Z,63.79
2019-03-15T22:47:06.323Z,63.54
2019-03-15T22:49:33.419Z,63.69
2019-03-15T22:52:00.527Z,63.93
2019-03-15T22:54:27.610Z,63.81
2019-03-15T22:56:54.853Z,64.00
2019-03-15T22:59:22.046Z,63.73
2019-03-15T23:01:49.085Z,64.32
2019-03-15T23:04:16.710Z,64.26
2019-03-15T23:06:43.940Z,65.50
2019-03-15T23:09:11.104Z,65.32
2019-03-15T23:11:38.702Z,65.51
2019-03-15T23:14:05.863Z,65.68
2019-03-15T23:16:33.323Z,65.56
2019-03-15T23:19:20.487Z,64.44
2019-03-15T23:21:47.807Z,64.73
2019-03-15T23:24:14.885Z,64.76
2019-03-15T23:26:42.294Z,65.11
2019-03-15T23:29:09.637Z,65.81
2019-03-15T23:31:43.532Z,66.32
2019-03-15T23:34:06.085Z,66.95
2019-03-15T23:36:33.350Z,66.88
2019-03-15T23:39:24.328Z,67.28
2019-03-15T23:41:51.435Z,67.81
2019-03-15T23:44:18.192Z,67.32
2019-03-15T23:46:45.086Z,67.02
2019-03-15T23:49:11.813Z,66.88
2019-03-15T23:51:38.560Z,66.96
2019-03-15T23:54:06.755Z,67.33
2019-03-15T23:56:33.506Z,67.51
2019-03-15T23:59:00.246Z,67.47
